createdAt,value
2017-08-22T00:00:53.715Z,0
2017-08-22T00:01:54.006Z,0
2017-08-22T00:02:54.334Z,0
2017-08-22T00:03:54.636Z,0
2017-08-22T00:04:54.631Z,0
2017-08-22T00:05:54.612Z,0
2017-08-22T00:06:54.017Z,0
2017-08-22T00:07:54.456Z,0
2017-08-22T00:08:54.771Z,0
2017-08-22T00:09:54.310Z,0
2017-08-22T00:10:54.611Z,0
2017-08-22T00:11:54.024Z,0
2017-08-22T00:12:54.351Z,0
2017-08-22T00:13:54.660Z,0
2017-08-22T00:14:54.606Z,0
2017-08-22T00:15:54.599Z,0
2017-08-22T00:16:54.610Z,0
2017-08-22T00:17:54.598Z,0
2017-08-22T00:18:54.296Z,0
2017-08-22T00:19:54.295Z,0
2017-08-22T00:20:54.305Z,0
2017-08-22T00:21:54.602Z,0
2017-08-22T00:22:54.308Z,0
2017-08-22T00:23:54.304Z,0
2017-08-22T00:24:53.994Z,0
2017-08-22T00:25:54.656Z,0
2017-08-22T00:26:54.056Z,0
2017-08-22T00:27:54.305Z,0
2017-08-22T00:28:59.302Z,0
2017-08-22T00:29:54.589Z,0
2017-08-22T00:30:54.602Z,0
2017-08-22T00:31:54.328Z,0
2017-08-22T00:32:54.598Z,0
2017-08-22T00:33:54.595Z,0
2017-08-22T00:34:54.596Z,0
2017-08-22T00:35:54.307Z,0
2017-08-22T00:36:54.308Z,0
2017-08-22T00:37:54.609Z,0
2017-08-22T00:38:54.048Z,0
2017-08-22T00:39:54.295Z,0
2017-08-22T00:40:54.289Z,0
2017-08-22T00:41:53.701Z,0
2017-08-22T00:42:53.690Z,0
2017-08-22T00:43:54.305Z,0
2017-08-22T00:44:54.598Z,0
2017-08-22T00:45:53.993Z,0
2017-08-22T00:46:54.290Z,0
2017-08-22T00:47:54.287Z,0
2017-08-22T00:48:54.593Z,0
2017-08-22T00:49:54.588Z,0
2017-08-22T00:50:54.297Z,0
2017-08-22T00:51:54.301Z,0
2017-08-22T00:52:54.300Z,0
2017-08-22T00:53:54.630Z,0
2017-08-22T00:54:54.594Z,0
2017-08-22T00:55:54.300Z,0
2017-08-22T00:56:53.691Z,0
2017-08-22T00:57:53.686Z,0
2017-08-22T00:58:54.741Z,0
2017-08-22T00:59:54.204Z,0
2017-08-22T01:00:53.986Z,0
2017-08-22T01:01:54.600Z,0
2017-08-22T01:02:54.284Z,0
2017-08-22T01:03:54.635Z,0
2017-08-22T01:04:54.293Z,0
2017-08-22T01:05:54.323Z,0
2017-08-22T01:06:54.584Z,0
2017-08-22T01:07:54.288Z,0
2017-08-22T01:08:54.633Z,0
2017-08-22T01:09:54.279Z,0
2017-08-22T01:10:53.996Z,0
2017-08-22T01:11:54.316Z,0
2017-08-22T01:12:53.989Z,0
2017-08-22T01:13:54.295Z,0
2017-08-22T01:14:54.576Z,0
2017-08-22T01:15:53.990Z,0
2017-08-22T01:16:54.578Z,0
2017-08-22T01:17:54.279Z,0
2017-08-22T01:18:54.585Z,0
2017-08-22T01:19:54.003Z,0
2017-08-22T01:20:54.309Z,0
2017-08-22T01:21:54.277Z,0
2017-08-22T01:22:54.592Z,0
2017-08-22T01:23:54.272Z,0
2017-08-22T01:24:54.267Z,0
2017-08-22T01:25:54.271Z,0
2017-08-22T01:26:54.313Z,0
2017-08-22T01:27:54.354Z,0
2017-08-22T01:28:54.292Z,0
2017-08-22T01:29:53.991Z,0
2017-08-22T01:30:54.301Z,0
2017-08-22T01:31:54.279Z,0
2017-08-22T01:32:54.262Z,0
2017-08-22T01:33:54.572Z,0
2017-08-22T01:34:54.587Z,0
2017-08-22T01:35:53.987Z,0
2017-08-22T01:36:54.574Z,0
2017-08-22T01:37:54.342Z,0
2017-08-22T01:38:55.154Z,0
2017-08-22T01:39:54.601Z,0
2017-08-22T01:40:53.987Z,0
2017-08-22T01:41:53.991Z,0
2017-08-22T01:42:54.324Z,0
2017-08-22T01:43:54.685Z,0
2017-08-22T01:44:56.627Z,0
2017-08-22T01:45:54.277Z,0
2017-08-22T01:46:54.557Z,0
2017-08-22T01:47:54.557Z,0
2017-08-22T01:48:54.276Z,0
2017-08-22T01:49:54.288Z,0
2017-08-22T01:50:54.266Z,0
2017-08-22T01:51:54.286Z,0
2017-08-22T01:52:54.270Z,0
2017-08-22T01:53:54.261Z,0
2017-08-22T01:54:54.568Z,0
2017-08-22T01:55:54.247Z,0
2017-08-22T01:56:54.246Z,0
2017-08-22T01:57:54.282Z,0
2017-08-22T01:58:54.251Z,0
2017-08-22T01:59:54.562Z,0
2017-08-22T02:00:54.272Z,0
2017-08-22T02:01:53.967Z,0
2017-08-22T02:02:54.020Z,0
2017-08-22T02:03:54.576Z,0
2017-08-22T02:04:54.551Z,0
2017-08-22T02:05:54.243Z,0
2017-08-22T02:06:53.965Z,0
2017-08-22T02:07:54.306Z,0
2017-08-22T02:08:54.545Z,0
2017-08-22T02:09:54.547Z,0
2017-08-22T02:10:54.551Z,0
2017-08-22T02:11:54.244Z,0
2017-08-22T02:12:54.563Z,0
2017-08-22T02:13:54.298Z,0
2017-08-22T02:14:55.711Z,0
2017-08-22T02:15:54.548Z,0
2017-08-22T02:16:54.266Z,0
2017-08-22T02:17:54.545Z,0
2017-08-22T02:18:54.300Z,0
2017-08-22T02:19:54.271Z,0
2017-08-22T02:20:54.553Z,0
2017-08-22T02:21:54.263Z,0
2017-08-22T02:22:54.539Z,0
2017-08-22T02:23:54.241Z,0
2017-08-22T02:24:54.245Z,0
2017-08-22T02:25:54.550Z,0
2017-08-22T02:26:54.544Z,0
2017-08-22T02:27:53.966Z,0
2017-08-22T02:28:53.958Z,0
2017-08-22T02:29:54.587Z,0
2017-08-22T02:30:53.943Z,0
2017-08-22T02:31:54.540Z,0
2017-08-22T02:32:54.613Z,0
2017-08-22T02:33:54.552Z,0
2017-08-22T02:34:54.564Z,0
2017-08-22T02:35:53.961Z,0
2017-08-22T02:36:54.549Z,0
2017-08-22T02:37:54.532Z,0
2017-08-22T02:38:54.534Z,0
2017-08-22T02:39:54.245Z,0
2017-08-22T02:40:53.936Z,0
2017-08-22T02:41:54.247Z,0
2017-08-22T02:42:54.534Z,0
2017-08-22T02:43:54.550Z,0
2017-08-22T02:44:55.000Z,0
2017-08-22T02:45:54.234Z,0
2017-08-22T02:46:54.248Z,0
2017-08-22T02:47:54.534Z,0
2017-08-22T02:48:54.548Z,0
2017-08-22T02:49:54.538Z,0
2017-08-22T02:50:54.249Z,0
2017-08-22T02:51:54.269Z,0
2017-08-22T02:52:54.542Z,0
2017-08-22T02:53:54.234Z,0
2017-08-22T02:54:54.542Z,0
2017-08-22T02:55:54.264Z,0
2017-08-22T02:56:54.599Z,0
2017-08-22T02:57:54.231Z,0
2017-08-22T02:58:54.218Z,0
2017-08-22T02:59:54.518Z,0
2017-08-22T03:00:54.228Z,0
2017-08-22T03:01:54.516Z,0
2017-08-22T03:02:54.523Z,0
2017-08-22T03:03:54.527Z,0
2017-08-22T03:04:54.524Z,0
2017-08-22T03:05:54.522Z,0
2017-08-22T03:06:53.910Z,0
2017-08-22T03:07:54.213Z,0
2017-08-22T03:08:54.538Z,0
2017-08-22T03:09:53.913Z,0
2017-08-22T03:10:54.519Z,0
2017-08-22T03:11:54.512Z,0
2017-08-22T03:12:53.906Z,0
2017-08-22T03:13:54.509Z,0
2017-08-22T03:14:57.054Z,0
2017-08-22T03:15:54.520Z,0
2017-08-22T03:16:54.506Z,0
2017-08-22T03:17:54.200Z,0
2017-08-22T03:18:54.236Z,0
2017-08-22T03:19:54.501Z,0
2017-08-22T03:20:54.513Z,0
2017-08-22T03:21:54.498Z,0
2017-08-22T03:22:54.498Z,0
2017-08-22T03:23:54.497Z,0
2017-08-22T03:24:54.492Z,0
2017-08-22T03:25:54.210Z,0
2017-08-22T03:26:54.201Z,0
2017-08-22T03:27:54.492Z,0
2017-08-22T03:28:54.197Z,0
2017-08-22T03:29:54.490Z,0
2017-08-22T03:30:54.503Z,0
2017-08-22T03:31:54.488Z,0
2017-08-22T03:32:54.492Z,0
2017-08-22T03:33:54.506Z,0
2017-08-22T03:34:54.491Z,0
2017-08-22T03:35:54.485Z,0
2017-08-22T03:36:54.508Z,0
2017-08-22T03:37:54.200Z,0
2017-08-22T03:38:54.174Z,0
2017-08-22T03:39:53.880Z,0
2017-08-22T03:40:54.486Z,0
2017-08-22T03:41:54.481Z,0
2017-08-22T03:42:54.187Z,0
2017-08-22T03:43:53.872Z,0
2017-08-22T03:44:54.502Z,0
2017-08-22T03:45:58.508Z,0
2017-08-22T03:46:54.468Z,0
2017-08-22T03:47:54.478Z,0
2017-08-22T03:48:54.168Z,0
2017-08-22T03:49:54.464Z,0
2017-08-22T03:50:54.467Z,0
2017-08-22T03:51:54.168Z,0
2017-08-22T03:52:54.170Z,0
2017-08-22T03:53:54.160Z,0
2017-08-22T03:54:54.171Z,0
2017-08-22T03:55:54.180Z,0
2017-08-22T03:56:54.164Z,0
2017-08-22T03:57:54.453Z,0
2017-08-22T03:58:54.451Z,0
2017-08-22T03:59:54.688Z,0
2017-08-22T04:00:56.372Z,0
2017-08-22T04:01:53.869Z,0
2017-08-22T04:02:54.154Z,0
2017-08-22T04:03:54.147Z,0
2017-08-22T04:04:54.448Z,0
2017-08-22T04:05:54.459Z,0
2017-08-22T04:06:53.858Z,0
2017-08-22T04:07:53.856Z,0
2017-08-22T04:08:54.444Z,0
2017-08-22T04:09:54.446Z,0
2017-08-22T04:10:53.857Z,0
2017-08-22T04:11:54.442Z,0
2017-08-22T04:12:54.455Z,0
2017-08-22T04:13:54.431Z,0
2017-08-22T04:14:54.128Z,0
2017-08-22T04:15:55.636Z,0
2017-08-22T04:16:54.435Z,0
2017-08-22T04:17:54.429Z,0
2017-08-22T04:18:54.129Z,0
2017-08-22T04:19:54.433Z,0
2017-08-22T04:20:54.123Z,0
2017-08-22T04:21:53.815Z,0
2017-08-22T04:22:54.198Z,0
2017-08-22T04:23:54.117Z,0
2017-08-22T04:24:54.426Z,0
2017-08-22T04:25:54.419Z,5
2017-08-22T04:26:53.819Z,5
2017-08-22T04:27:54.418Z,5
2017-08-22T04:28:54.126Z,5
2017-08-22T04:29:54.109Z,5
2017-08-22T04:30:54.423Z,5
2017-08-22T04:31:54.117Z,5
2017-08-22T04:32:54.418Z,5
2017-08-22T04:33:54.420Z,5
2017-08-22T04:34:54.409Z,10
2017-08-22T04:35:54.451Z,10
2017-08-22T04:36:54.114Z,10
2017-08-22T04:37:54.417Z,10
2017-08-22T04:38:54.101Z,10
2017-08-22T04:39:54.414Z,10
2017-08-22T04:40:54.103Z,10
2017-08-22T04:41:54.122Z,15
2017-08-22T04:42:54.403Z,15
2017-08-22T04:43:53.798Z,15
2017-08-22T04:44:54.101Z,15
2017-08-22T04:45:54.386Z,15
2017-08-22T04:46:55.190Z,15
2017-08-22T04:47:54.382Z,20
2017-08-22T04:48:54.082Z,20
2017-08-22T04:49:54.393Z,20
2017-08-22T04:50:54.089Z,20
2017-08-22T04:51:54.387Z,20
2017-08-22T04:52:54.387Z,25
2017-08-22T04:53:54.082Z,25
2017-08-22T04:54:54.377Z,25
2017-08-22T04:55:54.088Z,30
2017-08-22T04:56:54.377Z,30
2017-08-22T04:57:54.396Z,35
2017-08-22T04:58:54.081Z,40
2017-08-22T04:59:54.072Z,40
2017-08-22T05:00:54.075Z,45
2017-08-22T05:01:54.096Z,50
2017-08-22T05:02:54.080Z,50
2017-08-22T05:03:54.085Z,55
2017-08-22T05:04:54.374Z,60
2017-08-22T05:05:54.374Z,65
2017-08-22T05:06:54.405Z,70
2017-08-22T05:07:54.067Z,75
2017-08-22T05:08:54.383Z,75
2017-08-22T05:09:54.047Z,85
2017-08-22T05:10:54.090Z,90
2017-08-22T05:11:54.060Z,95
2017-08-22T05:12:54.384Z,100
2017-08-22T05:13:54.382Z,100
2017-08-22T05:14:54.372Z,105
2017-08-22T05:15:54.069Z,110
2017-08-22T05:16:57.589Z,115
2017-08-22T05:17:54.375Z,125
2017-08-22T05:18:54.376Z,125
2017-08-22T05:19:54.054Z,115
2017-08-22T05:20:54.386Z,110
2017-08-22T05:21:54.074Z,110
2017-08-22T05:22:54.382Z,110
2017-08-22T05:23:54.086Z,110
2017-08-22T05:24:54.385Z,110
2017-08-22T05:25:54.389Z,110
2017-08-22T05:26:53.770Z,110
2017-08-22T05:27:54.078Z,110
2017-08-22T05:28:54.374Z,105
2017-08-22T05:29:54.381Z,200
2017-08-22T05:30:54.385Z,130
2017-08-22T05:31:54.393Z,125
2017-08-22T05:32:54.435Z,125
2017-08-22T05:33:54.415Z,125
2017-08-22T05:34:54.087Z,130
2017-08-22T05:35:54.090Z,130
2017-08-22T05:36:54.409Z,180
2017-08-22T05:37:54.392Z,200
2017-08-22T05:38:53.794Z,200
2017-08-22T05:39:53.480Z,195
2017-08-22T05:40:54.393Z,200
2017-08-22T05:41:54.106Z,200
2017-08-22T05:42:54.397Z,190
2017-08-22T05:43:53.793Z,175
2017-08-22T05:44:54.100Z,190
2017-08-22T05:45:54.390Z,200
2017-08-22T05:46:54.103Z,195
2017-08-22T05:47:56.998Z,135
2017-08-22T05:48:54.389Z,155
2017-08-22T05:49:54.104Z,160
2017-08-22T05:50:54.103Z,150
2017-08-22T05:51:54.394Z,170
2017-08-22T05:52:54.096Z,150
2017-08-22T05:53:54.093Z,140
2017-08-22T05:54:54.414Z,140
2017-08-22T05:55:54.409Z,150
2017-08-22T05:56:54.111Z,165
2017-08-22T05:57:54.136Z,160
2017-08-22T05:58:54.127Z,195
2017-08-22T05:59:54.436Z,195
2017-08-22T06:00:54.422Z,180
2017-08-22T06:01:54.114Z,250
2017-08-22T06:02:54.429Z,170
2017-08-22T06:03:54.422Z,165
2017-08-22T06:04:54.433Z,165
2017-08-22T06:05:54.426Z,170
2017-08-22T06:06:54.437Z,165
2017-08-22T06:07:54.127Z,165
2017-08-22T06:08:54.434Z,170
2017-08-22T06:09:53.848Z,165
2017-08-22T06:10:54.437Z,165
2017-08-22T06:11:54.440Z,165
2017-08-22T06:12:54.451Z,165
2017-08-22T06:13:54.454Z,165
2017-08-22T06:14:54.453Z,165
2017-08-22T06:15:54.455Z,170
2017-08-22T06:16:54.156Z,190
2017-08-22T06:17:54.048Z,195
2017-08-22T06:18:54.468Z,190
2017-08-22T06:19:54.164Z,220
2017-08-22T06:20:54.463Z,245
2017-08-22T06:21:54.474Z,190
2017-08-22T06:22:53.861Z,200
2017-08-22T06:23:54.191Z,305
2017-08-22T06:24:53.892Z,295
2017-08-22T06:25:54.172Z,200
2017-08-22T06:26:54.180Z,195
2017-08-22T06:27:54.171Z,190
2017-08-22T06:28:54.179Z,190
2017-08-22T06:29:54.185Z,200
2017-08-22T06:30:54.479Z,190
2017-08-22T06:31:54.490Z,190
2017-08-22T06:32:54.183Z,205
2017-08-22T06:33:54.186Z,200
2017-08-22T06:34:54.504Z,195
2017-08-22T06:35:54.492Z,215
2017-08-22T06:36:54.491Z,185
2017-08-22T06:37:54.501Z,190
2017-08-22T06:38:54.501Z,185
2017-08-22T06:39:54.202Z,185
2017-08-22T06:40:54.205Z,185
2017-08-22T06:41:54.505Z,180
2017-08-22T06:42:54.236Z,180
2017-08-22T06:43:54.203Z,180
2017-08-22T06:44:54.530Z,185
2017-08-22T06:45:54.507Z,185
2017-08-22T06:46:54.516Z,185
2017-08-22T06:47:57.781Z,185
2017-08-22T06:48:54.225Z,185
2017-08-22T06:49:54.526Z,190
2017-08-22T06:50:54.232Z,190
2017-08-22T06:51:54.237Z,190
2017-08-22T06:52:54.527Z,190
2017-08-22T06:53:54.544Z,195
2017-08-22T06:54:54.534Z,195
2017-08-22T06:55:54.555Z,200
2017-08-22T06:56:54.549Z,195
2017-08-22T06:57:54.249Z,200
2017-08-22T06:58:54.550Z,195
2017-08-22T06:59:54.562Z,225
2017-08-22T07:00:54.553Z,220
2017-08-22T07:01:54.257Z,305
2017-08-22T07:02:53.948Z,370
2017-08-22T07:03:54.554Z,370
2017-08-22T07:04:54.259Z,365
2017-08-22T07:05:54.287Z,360
2017-08-22T07:06:54.281Z,360
2017-08-22T07:07:54.563Z,360
2017-08-22T07:08:54.572Z,365
2017-08-22T07:09:54.281Z,365
2017-08-22T07:10:54.286Z,365
2017-08-22T07:11:54.603Z,365
2017-08-22T07:12:54.593Z,365
2017-08-22T07:13:53.994Z,365
2017-08-22T07:14:54.299Z,365
2017-08-22T07:15:54.300Z,365
2017-08-22T07:16:54.612Z,365
2017-08-22T07:17:54.320Z,365
2017-08-22T07:18:56.429Z,365
2017-08-22T07:19:54.658Z,365
2017-08-22T07:20:54.635Z,365
2017-08-22T07:21:54.079Z,360
2017-08-22T07:22:54.353Z,365
2017-08-22T07:23:54.660Z,365
2017-08-22T07:24:54.680Z,360
2017-08-22T07:25:54.661Z,360
2017-08-22T07:26:54.693Z,360
2017-08-22T07:27:54.680Z,355
2017-08-22T07:28:54.378Z,330
2017-08-22T07:29:54.694Z,295
2017-08-22T07:30:54.718Z,275
2017-08-22T07:31:54.436Z,265
2017-08-22T07:32:53.830Z,260
2017-08-22T07:33:57.689Z,260
2017-08-22T07:34:54.438Z,260
2017-08-22T07:35:54.439Z,255
2017-08-22T07:36:54.465Z,260
2017-08-22T07:37:54.740Z,260
2017-08-22T07:38:54.441Z,260
2017-08-22T07:39:54.451Z,270
2017-08-22T07:40:54.773Z,265
2017-08-22T07:41:54.768Z,260
2017-08-22T07:42:54.468Z,270
2017-08-22T07:43:54.487Z,270
2017-08-22T07:44:54.209Z,265
2017-08-22T07:45:54.483Z,270
2017-08-22T07:46:54.484Z,285
2017-08-22T07:47:54.504Z,300
2017-08-22T07:48:54.991Z,310
2017-08-22T07:49:54.503Z,320
2017-08-22T07:50:54.812Z,325
2017-08-22T07:51:54.507Z,325
2017-08-22T07:52:54.514Z,330
2017-08-22T07:53:54.215Z,325
2017-08-22T07:54:54.552Z,325
2017-08-22T07:55:54.531Z,320
2017-08-22T07:56:54.842Z,270
2017-08-22T07:57:54.838Z,275
2017-08-22T07:58:54.240Z,295
2017-08-22T07:59:54.844Z,335
2017-08-22T08:00:54.850Z,335
2017-08-22T08:01:54.566Z,335
2017-08-22T08:02:54.900Z,335
2017-08-22T08:03:54.576Z,335
2017-08-22T08:04:54.576Z,335
2017-08-22T08:05:54.883Z,335
2017-08-22T08:06:54.902Z,340
2017-08-22T08:07:54.287Z,335
2017-08-22T08:08:54.605Z,340
2017-08-22T08:09:54.599Z,335
2017-08-22T08:10:54.313Z,340
2017-08-22T08:11:54.323Z,340
2017-08-22T08:12:54.625Z,335
2017-08-22T08:13:54.938Z,340
2017-08-22T08:14:54.634Z,335
2017-08-22T08:15:54.962Z,340
2017-08-22T08:16:54.645Z,335
2017-08-22T08:17:54.687Z,335
2017-08-22T08:18:54.660Z,305
2017-08-22T08:19:54.974Z,280
2017-08-22T08:20:54.388Z,280
2017-08-22T08:21:54.992Z,285
2017-08-22T08:22:54.697Z,300
2017-08-22T08:23:54.406Z,310
2017-08-22T08:24:54.700Z,310
2017-08-22T08:25:54.737Z,310
2017-08-22T08:26:54.709Z,310
2017-08-22T08:27:54.732Z,310
2017-08-22T08:28:55.033Z,310
2017-08-22T08:29:55.036Z,310
2017-08-22T08:30:55.049Z,310
2017-08-22T08:31:54.757Z,315
2017-08-22T08:32:54.756Z,315
2017-08-22T08:33:54.772Z,315
2017-08-22T08:34:54.470Z,320
2017-08-22T08:35:54.794Z,315
2017-08-22T08:36:55.089Z,315
2017-08-22T08:37:54.790Z,320
2017-08-22T08:38:54.817Z,315
2017-08-22T08:39:55.121Z,315
2017-08-22T08:40:55.117Z,315
2017-08-22T08:41:54.821Z,315
2017-08-22T08:42:55.127Z,315
2017-08-22T08:43:54.529Z,315
2017-08-22T08:44:54.878Z,315
2017-08-22T08:45:54.856Z,310
2017-08-22T08:46:54.867Z,305
2017-08-22T08:47:54.858Z,310
2017-08-22T08:48:54.872Z,305
2017-08-22T08:49:55.174Z,305
2017-08-22T08:50:54.873Z,300
2017-08-22T08:51:55.192Z,300
2017-08-22T08:52:54.928Z,300
2017-08-22T08:53:55.200Z,300
2017-08-22T08:54:54.625Z,300
2017-08-22T08:55:55.243Z,300
2017-08-22T08:56:54.634Z,300
2017-08-22T08:57:55.230Z,300
2017-08-22T08:58:55.240Z,305
2017-08-22T08:59:55.244Z,305
2017-08-22T09:00:54.938Z,300
2017-08-22T09:01:55.250Z,300
2017-08-22T09:02:54.952Z,300
2017-08-22T09:03:56.109Z,300
2017-08-22T09:04:55.265Z,300
2017-08-22T09:05:55.266Z,305
2017-08-22T09:06:55.268Z,295
2017-08-22T09:07:55.026Z,305
2017-08-22T09:08:55.057Z,305
2017-08-22T09:09:55.280Z,305
2017-08-22T09:10:55.297Z,305
2017-08-22T09:11:54.999Z,305
2017-08-22T09:12:55.007Z,305
2017-08-22T09:13:55.008Z,305
2017-08-22T09:14:55.008Z,305
2017-08-22T09:15:55.010Z,305
2017-08-22T09:16:55.355Z,305
2017-08-22T09:17:55.015Z,305
2017-08-22T09:18:55.328Z,305
2017-08-22T09:19:55.373Z,305
2017-08-22T09:20:55.333Z,305
2017-08-22T09:21:55.055Z,305
2017-08-22T09:22:55.059Z,305
2017-08-22T09:23:55.056Z,305
2017-08-22T09:24:55.057Z,305
2017-08-22T09:25:55.351Z,305
2017-08-22T09:26:54.769Z,305
2017-08-22T09:27:55.409Z,305
2017-08-22T09:28:55.122Z,305
2017-08-22T09:29:55.081Z,305
2017-08-22T09:30:55.088Z,305
2017-08-22T09:31:54.480Z,305
2017-08-22T09:32:55.087Z,305
2017-08-22T09:33:54.788Z,300
2017-08-22T09:35:00.256Z,300
2017-08-22T09:35:55.113Z,300
2017-08-22T09:36:55.414Z,300
2017-08-22T09:37:54.807Z,300
2017-08-22T09:38:54.815Z,295
2017-08-22T09:39:55.122Z,295
2017-08-22T09:40:54.822Z,295
2017-08-22T09:41:55.132Z,295
2017-08-22T09:42:54.833Z,290
2017-08-22T09:43:55.486Z,290
2017-08-22T09:44:55.175Z,290
2017-08-22T09:45:55.202Z,290
2017-08-22T09:46:55.150Z,290
2017-08-22T09:47:55.154Z,290
2017-08-22T09:48:55.156Z,285
2017-08-22T09:49:55.455Z,285
2017-08-22T09:50:55.474Z,285
2017-08-22T09:51:55.521Z,285
2017-08-22T09:52:55.180Z,285
2017-08-22T09:53:55.227Z,280
2017-08-22T09:54:55.484Z,280
2017-08-22T09:55:55.479Z,280
2017-08-22T09:56:55.522Z,280
2017-08-22T09:57:55.198Z,275
2017-08-22T09:58:55.514Z,275
2017-08-22T09:59:55.505Z,275
2017-08-22T10:00:55.248Z,275
2017-08-22T10:01:55.551Z,270
2017-08-22T10:02:55.530Z,270
2017-08-22T10:03:55.233Z,270
2017-08-22T10:04:55.228Z,270
2017-08-22T10:05:54.928Z,270
2017-08-22T10:06:55.547Z,265
2017-08-22T10:07:55.571Z,265
2017-08-22T10:08:55.555Z,265
2017-08-22T10:09:55.256Z,265
2017-08-22T10:10:55.563Z,265
2017-08-22T10:11:54.960Z,265
2017-08-22T10:12:55.273Z,265
2017-08-22T10:13:55.264Z,270
2017-08-22T10:14:55.595Z,270
2017-08-22T10:15:54.999Z,270
2017-08-22T10:16:55.293Z,275
2017-08-22T10:17:55.587Z,275
2017-08-22T10:18:55.613Z,280
2017-08-22T10:19:55.606Z,280
2017-08-22T10:20:54.998Z,280
2017-08-22T10:21:55.620Z,270
2017-08-22T10:22:55.320Z,270
2017-08-22T10:23:55.694Z,265
2017-08-22T10:24:55.736Z,270
2017-08-22T10:25:55.627Z,265
2017-08-22T10:26:55.688Z,270
2017-08-22T10:27:55.352Z,270
2017-08-22T10:28:55.700Z,275
2017-08-22T10:29:55.645Z,275
2017-08-22T10:30:55.653Z,280
2017-08-22T10:31:55.081Z,280
2017-08-22T10:32:55.672Z,280
2017-08-22T10:33:55.375Z,285
2017-08-22T10:34:56.393Z,290
2017-08-22T10:35:55.428Z,295
2017-08-22T10:36:55.399Z,295
2017-08-22T10:37:55.695Z,300
2017-08-22T10:38:55.699Z,310
2017-08-22T10:39:55.730Z,320
2017-08-22T10:40:55.437Z,330
2017-08-22T10:41:55.716Z,335
2017-08-22T10:42:55.773Z,340
2017-08-22T10:43:55.712Z,350
2017-08-22T10:44:55.792Z,345
2017-08-22T10:45:54.526Z,360
2017-08-22T10:46:55.465Z,350
2017-08-22T10:47:55.139Z,365
2017-08-22T10:48:55.169Z,360
2017-08-22T10:49:55.475Z,345
2017-08-22T10:50:55.457Z,340
2017-08-22T10:51:55.786Z,315
2017-08-22T10:52:55.778Z,310
2017-08-22T10:53:55.777Z,305
2017-08-22T10:54:55.801Z,295
2017-08-22T10:55:55.478Z,295
2017-08-22T10:56:55.906Z,295
2017-08-22T10:57:55.493Z,295
2017-08-22T10:58:55.856Z,290
2017-08-22T10:59:55.818Z,290
2017-08-22T11:00:55.564Z,285
2017-08-22T11:01:55.209Z,285
2017-08-22T11:02:55.510Z,285
2017-08-22T11:03:55.518Z,285
2017-08-22T11:04:55.881Z,285
2017-08-22T11:05:56.121Z,290
2017-08-22T11:06:55.833Z,295
2017-08-22T11:07:55.536Z,295
2017-08-22T11:08:55.852Z,295
2017-08-22T11:09:55.900Z,295
2017-08-22T11:10:55.862Z,295
2017-08-22T11:11:55.256Z,290
2017-08-22T11:12:55.656Z,285
2017-08-22T11:13:55.623Z,280
2017-08-22T11:14:55.567Z,275
2017-08-22T11:15:55.884Z,270
2017-08-22T11:16:55.899Z,265
2017-08-22T11:17:55.680Z,260
2017-08-22T11:18:55.589Z,260
2017-08-22T11:19:55.595Z,260
2017-08-22T11:20:55.954Z,260
2017-08-22T11:21:55.304Z,265
2017-08-22T11:22:55.951Z,275
2017-08-22T11:23:55.315Z,270
2017-08-22T11:24:55.633Z,270
2017-08-22T11:25:55.327Z,270
2017-08-22T11:26:55.650Z,275
2017-08-22T11:27:55.632Z,280
2017-08-22T11:28:55.962Z,295
2017-08-22T11:29:55.661Z,285
2017-08-22T11:30:55.338Z,285
2017-08-22T11:31:55.341Z,310
2017-08-22T11:32:55.351Z,315
2017-08-22T11:33:55.978Z,270
2017-08-22T11:34:55.361Z,275
2017-08-22T11:35:55.748Z,275
2017-08-22T11:36:55.995Z,265
2017-08-22T11:37:56.004Z,265
2017-08-22T11:38:55.674Z,295
2017-08-22T11:39:56.000Z,310
2017-08-22T11:40:55.113Z,310
2017-08-22T11:41:56.005Z,295
2017-08-22T11:42:56.000Z,245
2017-08-22T11:43:56.029Z,245
2017-08-22T11:44:55.482Z,240
2017-08-22T11:45:55.722Z,240
2017-08-22T11:46:55.451Z,235
2017-08-22T11:47:56.033Z,230
2017-08-22T11:48:56.036Z,250
2017-08-22T11:49:56.087Z,265
2017-08-22T11:50:55.470Z,260
2017-08-22T11:51:55.751Z,260
2017-08-22T11:52:55.776Z,260
2017-08-22T11:53:55.796Z,260
2017-08-22T11:54:55.819Z,260
2017-08-22T11:55:55.764Z,260
2017-08-22T11:56:56.094Z,265
2017-08-22T11:57:55.502Z,265
2017-08-22T11:58:56.074Z,265
2017-08-22T11:59:55.487Z,265
2017-08-22T12:00:56.099Z,265
2017-08-22T12:01:55.791Z,265
2017-08-22T12:02:55.829Z,265
2017-08-22T12:03:56.101Z,265
2017-08-22T12:04:55.815Z,265
2017-08-22T12:05:56.192Z,265
2017-08-22T12:06:55.620Z,260
2017-08-22T12:07:55.830Z,255
2017-08-22T12:08:56.128Z,250
2017-08-22T12:09:55.613Z,245
2017-08-22T12:10:55.830Z,245
2017-08-22T12:11:56.143Z,240
2017-08-22T12:12:55.851Z,240
2017-08-22T12:13:55.560Z,240
2017-08-22T12:14:55.849Z,240
2017-08-22T12:15:55.851Z,240
2017-08-22T12:16:55.900Z,240
2017-08-22T12:17:55.859Z,240
2017-08-22T12:18:55.900Z,240
2017-08-22T12:19:56.170Z,235
2017-08-22T12:20:55.886Z,235
2017-08-22T12:21:56.182Z,235
2017-08-22T12:22:55.892Z,235
2017-08-22T12:23:55.893Z,230
2017-08-22T12:24:55.899Z,220
2017-08-22T12:25:56.196Z,230
2017-08-22T12:26:55.924Z,230
2017-08-22T12:27:56.209Z,225
2017-08-22T12:28:55.960Z,220
2017-08-22T12:29:55.919Z,225
2017-08-22T12:30:55.963Z,225
2017-08-22T12:31:56.236Z,225
2017-08-22T12:32:55.958Z,220
2017-08-22T12:33:56.279Z,225
2017-08-22T12:34:56.021Z,225
2017-08-22T12:35:56.707Z,220
2017-08-22T12:36:55.976Z,210
2017-08-22T12:37:56.268Z,215
2017-08-22T12:38:55.976Z,225
2017-08-22T12:39:56.277Z,215
2017-08-22T12:40:55.677Z,215
2017-08-22T12:41:56.296Z,215
2017-08-22T12:42:55.994Z,215
2017-08-22T12:43:55.393Z,215
2017-08-22T12:44:55.721Z,215
2017-08-22T12:45:56.026Z,210
2017-08-22T12:46:56.338Z,220
2017-08-22T12:47:56.062Z,215
2017-08-22T12:48:56.339Z,215
2017-08-22T12:49:56.044Z,215
2017-08-22T12:50:55.462Z,215
2017-08-22T12:51:56.050Z,215
2017-08-22T12:52:56.065Z,215
2017-08-22T12:53:56.049Z,215
2017-08-22T12:54:56.376Z,215
2017-08-22T12:55:56.088Z,215
2017-08-22T12:56:56.376Z,215
2017-08-22T12:57:56.367Z,215
2017-08-22T12:58:56.072Z,210
2017-08-22T12:59:55.787Z,215
2017-08-22T13:00:56.390Z,210
2017-08-22T13:01:56.452Z,205
2017-08-22T13:02:55.800Z,190
2017-08-22T13:03:55.195Z,180
2017-08-22T13:04:56.398Z,200
2017-08-22T13:05:59.595Z,200
2017-08-22T13:06:55.603Z,205
2017-08-22T13:07:55.810Z,205
2017-08-22T13:08:55.811Z,200
2017-08-22T13:09:56.416Z,200
2017-08-22T13:10:55.835Z,200
2017-08-22T13:11:56.236Z,200
2017-08-22T13:12:55.835Z,190
2017-08-22T13:13:56.431Z,200
2017-08-22T13:14:56.167Z,205
2017-08-22T13:15:56.464Z,210
2017-08-22T13:16:56.453Z,210
2017-08-22T13:17:55.598Z,215
2017-08-22T13:18:56.166Z,215
2017-08-22T13:19:56.540Z,210
2017-08-22T13:20:56.175Z,210
2017-08-22T13:21:56.470Z,210
2017-08-22T13:22:56.560Z,210
2017-08-22T13:23:56.178Z,210
2017-08-22T13:24:56.199Z,210
2017-08-22T13:25:56.487Z,205
2017-08-22T13:26:56.524Z,205
2017-08-22T13:27:56.497Z,205
2017-08-22T13:28:56.525Z,200
2017-08-22T13:29:55.902Z,200
2017-08-22T13:30:56.273Z,205
2017-08-22T13:31:56.268Z,195
2017-08-22T13:32:56.238Z,200
2017-08-22T13:33:56.560Z,200
2017-08-22T13:34:56.582Z,200
2017-08-22T13:35:56.266Z,200
2017-08-22T13:36:59.204Z,195
2017-08-22T13:37:56.558Z,200
2017-08-22T13:38:56.552Z,200
2017-08-22T13:39:56.265Z,195
2017-08-22T13:40:56.274Z,195
2017-08-22T13:41:55.989Z,200
2017-08-22T13:42:56.601Z,200
2017-08-22T13:43:56.579Z,200
2017-08-22T13:44:56.576Z,205
2017-08-22T13:45:56.584Z,205
2017-08-22T13:46:56.304Z,205
2017-08-22T13:47:56.593Z,200
2017-08-22T13:48:56.625Z,200
2017-08-22T13:49:56.597Z,195
2017-08-22T13:50:56.615Z,195
2017-08-22T13:51:56.828Z,195
2017-08-22T13:52:56.016Z,195
2017-08-22T13:53:56.024Z,180
2017-08-22T13:54:56.631Z,180
2017-08-22T13:55:56.346Z,170
2017-08-22T13:56:56.645Z,170
2017-08-22T13:57:56.362Z,185
2017-08-22T13:58:56.365Z,190
2017-08-22T13:59:56.688Z,190
2017-08-22T14:00:56.378Z,195
2017-08-22T14:01:56.066Z,195
2017-08-22T14:02:56.686Z,195
2017-08-22T14:03:56.672Z,195
2017-08-22T14:04:56.376Z,195
2017-08-22T14:05:56.682Z,190
2017-08-22T14:06:59.093Z,180